sensor_id;sensor_type;location;lat;lon;timestamp;pressure;altitude;pressure_sealevel;temperature;humidity
3598;BME280;1813;52.016;8.714;2023-07-22T00:00:20;-16261.94;;;-139.71;82.40
3598;BME280;1813;52.016;8.714;2023-07-22T00:02:54;-16261.94;;;-139.71;82.27
3598;BME280;1813;52.016;8.714;2023-07-22T00:05:30;-16261.94;;;-139.71;81.94
3598;BME280;1813;52.016;8.714;2023-07-22T00:08:05;-16261.94;;;-139.71;81.83
3598;BME280;1813;52.016;8.714;2023-07-22T00:10:41;-16261.94;;;-139.71;82.03
3598;BME280;1813;52.016;8.714;2023-07-22T00:13:16;-16261.94;;;-139.71;81.88
3598;BME280;1813;52.016;8.714;2023-07-22T00:15:50;-16261.94;;;-139.71;81.54
3598;BME280;1813;52.016;8.714;2023-07-22T00:18:25;-16261.94;;;-139.71;81.55
3598;BME280;1813;52.016;8.714;2023-07-22T00:21:03;-16261.94;;;-139.71;81.21
3598;BME280;1813;52.016;8.714;2023-07-22T00:23:37;-16261.94;;;-139.71;81.35
3598;BME280;1813;52.016;8.714;2023-07-22T00:26:11;-16261.94;;;-139.71;81.30
3598;BME280;1813;52.016;8.714;2023-07-22T00:28:45;-16261.94;;;-139.71;81.46
3598;BME280;1813;52.016;8.714;2023-07-22T00:31:19;-16261.94;;;-139.71;81.29
3598;BME280;1813;52.016;8.714;2023-07-22T00:33:53;-16261.94;;;-139.71;81.00
3598;BME280;1813;52.016;8.714;2023-07-22T00:36:30;-16261.94;;;-139.71;79.95
3598;BME280;1813;52.016;8.714;2023-07-22T00:39:03;-16261.94;;;-139.71;79.42
3598;BME280;1813;52.016;8.714;2023-07-22T00:41:39;-16261.94;;;-139.71;79.38
3598;BME280;1813;52.016;8.714;2023-07-22T00:44:17;-16261.94;;;-139.71;79.49
3598;BME280;1813;52.016;8.714;2023-07-22T00:46:53;-16261.94;;;-139.71;79.87
3598;BME280;1813;52.016;8.714;2023-07-22T00:49:28;-16261.94;;;-139.71;80.39
3598;BME280;1813;52.016;8.714;2023-07-22T00:52:06;-16261.94;;;-139.71;80.73
3598;BME280;1813;52.016;8.714;2023-07-22T00:54:40;-16261.94;;;-139.71;80.55
3598;BME280;1813;52.016;8.714;2023-07-22T00:57:15;-16261.94;;;-139.71;80.70
3598;BME280;1813;52.016;8.714;2023-07-22T00:59:49;-16261.94;;;-139.71;80.85
3598;BME280;1813;52.016;8.714;2023-07-22T01:02:23;-16261.94;;;-139.71;80.64
3598;BME280;1813;52.016;8.714;2023-07-22T01:04:57;-16261.94;;;-139.71;80.87
3598;BME280;1813;52.016;8.714;2023-07-22T01:07:34;-16261.94;;;-139.71;81.18
3598;BME280;1813;52.016;8.714;2023-07-22T01:10:09;-16261.94;;;-139.71;81.59
3598;BME280;1813;52.016;8.714;2023-07-22T01:12:44;-16261.94;;;-139.71;81.71
3598;BME280;1813;52.016;8.714;2023-07-22T01:15:18;-16261.94;;;-139.71;81.96
3598;BME280;1813;52.016;8.714;2023-07-22T01:17:53;-16261.94;;;-139.71;81.91
3598;BME280;1813;52.016;8.714;2023-07-22T01:20:32;-16261.94;;;-139.71;82.08
3598;BME280;1813;52.016;8.714;2023-07-22T01:23:09;-16261.94;;;-139.71;81.81
3598;BME280;1813;52.016;8.714;2023-07-22T01:25:44;-16261.94;;;-139.71;82.02
3598;BME280;1813;52.016;8.714;2023-07-22T01:28:20;-16261.94;;;-139.71;81.79
3598;BME280;1813;52.016;8.714;2023-07-22T01:30:54;-16261.94;;;-139.71;81.50
3598;BME280;1813;52.016;8.714;2023-07-22T01:33:28;-16261.94;;;-139.71;81.30
3598;BME280;1813;52.016;8.714;2023-07-22T01:36:03;-16261.94;;;-139.71;81.21
3598;BME280;1813;52.016;8.714;2023-07-22T01:38:40;-16261.94;;;-139.71;80.87
3598;BME280;1813;52.016;8.714;2023-07-22T01:41:14;-16261.94;;;-139.71;81.06
3598;BME280;1813;52.016;8.714;2023-07-22T01:43:48;-16261.94;;;-139.71;80.59
3598;BME280;1813;52.016;8.714;2023-07-22T01:46:22;-16261.94;;;-139.71;80.50
3598;BME280;1813;52.016;8.714;2023-07-22T01:48:56;-16261.94;;;-139.71;80.53
3598;BME280;1813;52.016;8.714;2023-07-22T01:51:30;-16261.94;;;-139.71;80.42
3598;BME280;1813;52.016;8.714;2023-07-22T01:54:09;-16261.94;;;-139.71;80.35
3598;BME280;1813;52.016;8.714;2023-07-22T01:56:43;-16261.94;;;-139.71;80.28
3598;BME280;1813;52.016;8.714;2023-07-22T01:59:17;-16261.94;;;-139.71;80.49
3598;BME280;1813;52.016;8.714;2023-07-22T02:01:51;-16261.94;;;-139.71;80.88
3598;BME280;1813;52.016;8.714;2023-07-22T02:04:25;-16261.94;;;-139.71;80.95
3598;BME280;1813;52.016;8.714;2023-07-22T02:07:00;-16261.94;;;-139.71;80.70
3598;BME280;1813;52.016;8.714;2023-07-22T02:09:37;-16261.94;;;-139.71;80.80
3598;BME280;1813;52.016;8.714;2023-07-22T02:12:12;-16261.94;;;-139.71;81.04
3598;BME280;1813;52.016;8.714;2023-07-22T02:14:46;-16261.94;;;-139.71;81.32
3598;BME280;1813;52.016;8.714;2023-07-22T02:17:20;-16261.94;;;-139.71;81.64
3598;BME280;1813;52.016;8.714;2023-07-22T02:19:54;-16261.94;;;-139.71;81.82
3598;BME280;1813;52.016;8.714;2023-07-22T02:22:28;-16261.94;;;-139.71;81.76
3598;BME280;1813;52.016;8.714;2023-07-22T02:25:06;-16261.94;;;-139.71;81.90
3598;BME280;1813;52.016;8.714;2023-07-22T02:27:41;-16261.94;;;-139.71;81.84
3598;BME280;1813;52.016;8.714;2023-07-22T02:30:15;-16261.94;;;-139.71;82.11
3598;BME280;1813;52.016;8.714;2023-07-22T02:32:50;-16261.94;;;-139.71;81.94
3598;BME280;1813;52.016;8.714;2023-07-22T02:35:24;-16261.94;;;-139.71;81.85
3598;BME280;1813;52.016;8.714;2023-07-22T02:37:58;-16261.94;;;-139.71;81.58
3598;BME280;1813;52.016;8.714;2023-07-22T02:40:37;-16261.94;;;-139.71;81.24
3598;BME280;1813;52.016;8.714;2023-07-22T02:43:11;-16261.94;;;-139.71;81.38
3598;BME280;1813;52.016;8.714;2023-07-22T02:45:46;-16261.94;;;-139.71;81.22
3598;BME280;1813;52.016;8.714;2023-07-22T02:48:20;-16261.94;;;-139.71;81.15
3598;BME280;1813;52.016;8.714;2023-07-22T02:50:54;-16261.94;;;-139.71;80.97
3598;BME280;1813;52.016;8.714;2023-07-22T02:53:27;-16261.94;;;-139.71;81.14
3598;BME280;1813;52.016;8.714;2023-07-22T02:56:04;-16261.94;;;-139.71;81.23
3598;BME280;1813;52.016;8.714;2023-07-22T02:58:39;-16261.94;;;-139.71;81.26
3598;BME280;1813;52.016;8.714;2023-07-22T03:01:15;-16261.94;;;-139.71;80.77
3598;BME280;1813;52.016;8.714;2023-07-22T03:03:49;-16261.94;;;-139.71;80.47
3598;BME280;1813;52.016;8.714;2023-07-22T03:06:23;-16261.94;;;-139.71;80.59
3598;BME280;1813;52.016;8.714;2023-07-22T03:08:59;-16261.94;;;-139.71;80.79
3598;BME280;1813;52.016;8.714;2023-07-22T03:11:38;-16261.94;;;-139.71;80.79
3598;BME280;1813;52.016;8.714;2023-07-22T03:14:12;-16261.94;;;-139.71;80.10
3598;BME280;1813;52.016;8.714;2023-07-22T03:16:46;-16261.94;;;-139.71;79.85
3598;BME280;1813;52.016;8.714;2023-07-22T03:19:20;-16261.94;;;-139.71;79.95
3598;BME280;1813;52.016;8.714;2023-07-22T03:21:54;-16261.94;;;-139.71;80.05
3598;BME280;1813;52.016;8.714;2023-07-22T03:24:30;-16261.94;;;-139.71;79.99
3598;BME280;1813;52.016;8.714;2023-07-22T03:27:07;-16261.94;;;-139.71;80.40
3598;BME280;1813;52.016;8.714;2023-07-22T03:29:41;-16261.94;;;-139.71;80.49
3598;BME280;1813;52.016;8.714;2023-07-22T03:32:15;-16261.94;;;-139.71;80.42
3598;BME280;1813;52.016;8.714;2023-07-22T03:34:49;-16261.94;;;-139.71;80.62
3598;BME280;1813;52.016;8.714;2023-07-22T03:37:22;-16261.94;;;-139.71;80.85
3598;BME280;1813;52.016;8.714;2023-07-22T03:39:56;-16261.94;;;-139.71;80.29
3598;BME280;1813;52.016;8.714;2023-07-22T03:42:33;-16261.94;;;-139.71;80.42
3598;BME280;1813;52.016;8.714;2023-07-22T03:45:08;-16261.94;;;-139.71;80.77
3598;BME280;1813;52.016;8.714;2023-07-22T03:47:43;-16261.94;;;-139.71;79.97
3598;BME280;1813;52.016;8.714;2023-07-22T03:50:17;-16261.94;;;-139.71;80.02
3598;BME280;1813;52.016;8.714;2023-07-22T03:52:51;-16261.94;;;-139.71;79.72
3598;BME280;1813;52.016;8.714;2023-07-22T03:55:25;-16261.94;;;-139.71;79.44
3598;BME280;1813;52.016;8.714;2023-07-22T03:58:02;-16261.94;;;-139.71;79.25
3598;BME280;1813;52.016;8.714;2023-07-22T04:00:37;-16261.94;;;-139.71;79.20
3598;BME280;1813;52.016;8.714;2023-07-22T04:03:12;-16261.94;;;-139.71;79.15
3598;BME280;1813;52.016;8.714;2023-07-22T04:05:53;-16261.94;;;-139.71;79.33
3598;BME280;1813;52.016;8.714;2023-07-22T04:08:27;-16261.94;;;-139.71;79.36
3598;BME280;1813;52.016;8.714;2023-07-22T04:11:01;-16261.94;;;-139.71;79.31
3598;BME280;1813;52.016;8.714;2023-07-22T04:13:38;-16261.94;;;-139.71;79.26
3598;BME280;1813;52.016;8.714;2023-07-22T04:16:13;-16261.94;;;-139.71;79.33
3598;BME280;1813;52.016;8.714;2023-07-22T04:18:47;-16261.94;;;-139.71;79.80
3598;BME280;1813;52.016;8.714;2023-07-22T04:21:21;-16261.94;;;-139.71;79.78
3598;BME280;1813;52.016;8.714;2023-07-22T04:23:55;-16261.94;;;-139.71;79.48
3598;BME280;1813;52.016;8.714;2023-07-22T04:26:29;-16261.94;;;-139.71;79.34
3598;BME280;1813;52.016;8.714;2023-07-22T04:29:05;-16261.94;;;-139.71;79.43
3598;BME280;1813;52.016;8.714;2023-07-22T04:31:42;-16261.94;;;-139.71;79.73
3598;BME280;1813;52.016;8.714;2023-07-22T04:34:16;-16261.94;;;-139.71;79.57
3598;BME280;1813;52.016;8.714;2023-07-22T04:36:50;-16261.94;;;-139.71;79.55
3598;BME280;1813;52.016;8.714;2023-07-22T04:39:25;-16261.94;;;-139.71;79.50
3598;BME280;1813;52.016;8.714;2023-07-22T04:41:59;-16261.94;;;-139.71;79.28
3598;BME280;1813;52.016;8.714;2023-07-22T04:44:35;-16261.94;;;-139.71;79.73
3598;BME280;1813;52.016;8.714;2023-07-22T04:47:10;-16261.94;;;-139.71;80.19
3598;BME280;1813;52.016;8.714;2023-07-22T04:49:44;-16261.94;;;-139.71;79.91
3598;BME280;1813;52.016;8.714;2023-07-22T04:52:18;-16261.94;;;-139.71;79.45
3598;BME280;1813;52.016;8.714;2023-07-22T04:54:52;-16261.94;;;-139.71;79.53
3598;BME280;1813;52.016;8.714;2023-07-22T04:57:26;-16261.94;;;-139.71;79.90
3598;BME280;1813;52.016;8.714;2023-07-22T05:00:02;-16261.94;;;-139.71;80.38
3598;BME280;1813;52.016;8.714;2023-07-22T05:02:40;-16261.94;;;-139.71;80.27
3598;BME280;1813;52.016;8.714;2023-07-22T05:05:15;-16261.94;;;-139.71;80.18
3598;BME280;1813;52.016;8.714;2023-07-22T05:07:49;-16261.94;;;-139.71;80.23
3598;BME280;1813;52.016;8.714;2023-07-22T05:10:23;-16261.94;;;-139.71;80.06
3598;BME280;1813;52.016;8.714;2023-07-22T05:12:59;-16261.94;;;-139.71;79.92
3598;BME280;1813;52.016;8.714;2023-07-22T05:15:35;-16261.94;;;-139.71;79.61
3598;BME280;1813;52.016;8.714;2023-07-22T05:18:09;-16261.94;;;-139.71;79.63
3598;BME280;1813;52.016;8.714;2023-07-22T05:20:44;-16261.94;;;-139.71;79.81
3598;BME280;1813;52.016;8.714;2023-07-22T05:23:18;-16261.94;;;-139.71;80.09
3598;BME280;1813;52.016;8.714;2023-07-22T05:25:54;-16261.94;;;-139.71;80.16
3598;BME280;1813;52.016;8.714;2023-07-22T05:28:29;-16261.94;;;-139.71;79.92
3598;BME280;1813;52.016;8.714;2023-07-22T05:31:06;-16261.94;;;-139.71;80.27
3598;BME280;1813;52.016;8.714;2023-07-22T05:33:39;-16261.94;;;-139.71;80.44
3598;BME280;1813;52.016;8.714;2023-07-22T05:36:13;-16261.94;;;-139.71;80.09
3598;BME280;1813;52.016;8.714;2023-07-22T05:38:48;-16261.94;;;-139.71;80.14
3598;BME280;1813;52.016;8.714;2023-07-22T05:41:23;-16261.94;;;-139.71;80.25
3598;BME280;1813;52.016;8.714;2023-07-22T05:43:57;-16261.94;;;-139.71;80.45
3598;BME280;1813;52.016;8.714;2023-07-22T05:46:33;-16261.94;;;-139.71;80.39
3598;BME280;1813;52.016;8.714;2023-07-22T05:49:08;-16261.94;;;-139.71;80.29
3598;BME280;1813;52.016;8.714;2023-07-22T05:51:42;-16261.94;;;-139.71;80.60
3598;BME280;1813;52.016;8.714;2023-07-22T05:54:17;-16261.94;;;-139.71;80.58
3598;BME280;1813;52.016;8.714;2023-07-22T05:56:51;-16261.94;;;-139.71;80.44
3598;BME280;1813;52.016;8.714;2023-07-22T05:59:25;-16261.94;;;-139.71;80.13
3598;BME280;1813;52.016;8.714;2023-07-22T06:02:03;-16261.94;;;-139.71;79.75
3598;BME280;1813;52.016;8.714;2023-07-22T06:04:37;-16261.94;;;-139.71;80.23
3598;BME280;1813;52.016;8.714;2023-07-22T06:07:11;-16261.94;;;-139.71;80.18
3598;BME280;1813;52.016;8.714;2023-07-22T06:09:46;-16261.94;;;-139.71;80.42
3598;BME280;1813;52.016;8.714;2023-07-22T06:12:21;-16261.94;;;-139.71;80.11
3598;BME280;1813;52.016;8.714;2023-07-22T06:14:55;-16261.94;;;-139.71;80.27
3598;BME280;1813;52.016;8.714;2023-07-22T06:17:31;-16261.94;;;-139.71;79.80
3598;BME280;1813;52.016;8.714;2023-07-22T06:20:06;-16261.94;;;-139.71;78.97
3598;BME280;1813;52.016;8.714;2023-07-22T06:22:41;-16261.94;;;-139.71;79.29
3598;BME280;1813;52.016;8.714;2023-07-22T06:25:14;-16261.94;;;-139.71;79.29
3598;BME280;1813;52.016;8.714;2023-07-22T06:27:48;-16261.94;;;-139.71;79.33
3598;BME280;1813;52.016;8.714;2023-07-22T06:30:24;-16261.94;;;-139.71;79.58
3598;BME280;1813;52.016;8.714;2023-07-22T06:33:01;-16261.94;;;-139.71;79.48
3598;BME280;1813;52.016;8.714;2023-07-22T06:35:35;-16261.94;;;-139.71;79.33
3598;BME280;1813;52.016;8.714;2023-07-22T06:38:12;-16261.94;;;-139.71;80.11
3598;BME280;1813;52.016;8.714;2023-07-22T06:40:47;-16261.94;;;-139.71;80.59
3598;BME280;1813;52.016;8.714;2023-07-22T06:43:21;-16261.94;;;-139.71;80.54
3598;BME280;1813;52.016;8.714;2023-07-22T06:45:55;-16261.94;;;-139.71;80.39
3598;BME280;1813;52.016;8.714;2023-07-22T06:48:31;-16261.94;;;-139.71;80.37
3598;BME280;1813;52.016;8.714;2023-07-22T06:51:06;-16261.94;;;-139.71;81.72
3598;BME280;1813;52.016;8.714;2023-07-22T06:53:40;-16261.94;;;-139.71;81.39
3598;BME280;1813;52.016;8.714;2023-07-22T06:56:14;-16261.94;;;-139.71;79.87
3598;BME280;1813;52.016;8.714;2023-07-22T06:58:48;-16261.94;;;-139.71;79.84
3598;BME280;1813;52.016;8.714;2023-07-22T07:01:23;-16261.94;;;-139.71;79.26
3598;BME280;1813;52.016;8.714;2023-07-22T07:04:00;-16261.94;;;-139.71;78.99
3598;BME280;1813;52.016;8.714;2023-07-22T07:06:34;-16261.94;;;-139.71;79.19
3598;BME280;1813;52.016;8.714;2023-07-22T07:09:09;-16261.94;;;-139.71;79.05
3598;BME280;1813;52.016;8.714;2023-07-22T07:11:42;-16261.94;;;-139.71;78.08
3598;BME280;1813;52.016;8.714;2023-07-22T07:14:16;-16261.94;;;-139.71;77.50
3598;BME280;1813;52.016;8.714;2023-07-22T07:16:50;-16261.94;;;-139.71;77.32
3598;BME280;1813;52.016;8.714;2023-07-22T07:19:27;-16261.94;;;-139.71;76.44
3598;BME280;1813;52.016;8.714;2023-07-22T07:22:01;-16261.94;;;-139.71;75.75
3598;BME280;1813;52.016;8.714;2023-07-22T07:24:35;-16261.94;;;-139.71;74.40
3598;BME280;1813;52.016;8.714;2023-07-22T07:27:08;-16261.94;;;-139.71;73.22
3598;BME280;1813;52.016;8.714;2023-07-22T07:29:42;-16261.94;;;-139.71;72.88
3598;BME280;1813;52.016;8.714;2023-07-22T07:32:16;-16261.94;;;-139.71;72.27
3598;BME280;1813;52.016;8.714;2023-07-22T07:34:53;-16261.94;;;-139.71;71.97
3598;BME280;1813;52.016;8.714;2023-07-22T07:37:29;-16261.94;;;-139.71;71.20
3598;BME280;1813;52.016;8.714;2023-07-22T07:40:04;-16261.94;;;-139.71;70.42
3598;BME280;1813;52.016;8.714;2023-07-22T07:42:39;-16261.94;;;-139.71;69.98
3598;BME280;1813;52.016;8.714;2023-07-22T07:45:12;-16261.94;;;-139.71;70.42
3598;BME280;1813;52.016;8.714;2023-07-22T07:47:47;-16261.94;;;-139.71;71.10
3598;BME280;1813;52.016;8.714;2023-07-22T07:50:24;-16261.94;;;-139.71;70.96
3598;BME280;1813;52.016;8.714;2023-07-22T07:52:58;-16261.94;;;-139.71;69.70
3598;BME280;1813;52.016;8.714;2023-07-22T07:55:32;-16261.94;;;-139.71;68.80
3598;BME280;1813;52.016;8.714;2023-07-22T07:58:06;-16261.94;;;-139.71;67.90
3598;BME280;1813;52.016;8.714;2023-07-22T08:00:40;-16261.94;;;-139.71;67.22
3598;BME280;1813;52.016;8.714;2023-07-22T08:03:13;-16261.94;;;-139.71;68.67
3598;BME280;1813;52.016;8.714;2023-07-22T08:05:50;-16261.94;;;-139.71;69.57
3598;BME280;1813;52.016;8.714;2023-07-22T08:08:25;-16261.94;;;-139.71;67.16
3598;BME280;1813;52.016;8.714;2023-07-22T08:11:00;-16261.94;;;-139.71;66.24
3598;BME280;1813;52.016;8.714;2023-07-22T08:13:35;-16261.94;;;-139.71;65.99
3598;BME280;1813;52.016;8.714;2023-07-22T08:16:11;-16261.94;;;-139.71;66.09
3598;BME280;1813;52.016;8.714;2023-07-22T08:18:45;-16261.94;;;-139.71;66.13
3598;BME280;1813;52.016;8.714;2023-07-22T08:21:23;-16261.94;;;-139.71;66.54
3598;BME280;1813;52.016;8.714;2023-07-22T08:23:57;-16261.94;;;-139.71;65.82
3598;BME280;1813;52.016;8.714;2023-07-22T08:26:30;-16261.94;;;-139.71;65.33
3598;BME280;1813;52.016;8.714;2023-07-22T08:29:04;-16261.94;;;-139.71;63.95
3598;BME280;1813;52.016;8.714;2023-07-22T08:31:38;-16261.94;;;-139.71;63.49
3598;BME280;1813;52.016;8.714;2023-07-22T08:34:12;-16261.94;;;-139.71;63.98
3598;BME280;1813;52.016;8.714;2023-07-22T08:36:49;-16261.94;;;-139.71;64.76
3598;BME280;1813;52.016;8.714;2023-07-22T08:39:23;-16261.94;;;-139.71;64.33
3598;BME280;1813;52.016;8.714;2023-07-22T08:41:59;-16261.94;;;-139.71;65.11
3598;BME280;1813;52.016;8.714;2023-07-22T08:44:38;-16261.94;;;-139.71;64.15
3598;BME280;1813;52.016;8.714;2023-07-22T08:47:18;-16261.94;;;-139.71;65.36
3598;BME280;1813;52.016;8.714;2023-07-22T08:49:57;-16261.94;;;-139.71;66.01
3598;BME280;1813;52.016;8.714;2023-07-22T08:52:34;-16261.94;;;-139.71;64.64
3598;BME280;1813;52.016;8.714;2023-07-22T08:55:09;-16261.94;;;-139.71;63.99
3598;BME280;1813;52.016;8.714;2023-07-22T08:57:44;-16261.94;;;-139.71;65.07
3598;BME280;1813;52.016;8.714;2023-07-22T09:00:18;-16261.94;;;-139.71;66.42
3598;BME280;1813;52.016;8.714;2023-07-22T09:02:53;-16261.94;;;-139.71;64.40
3598;BME280;1813;52.016;8.714;2023-07-22T09:05:27;-16261.94;;;-139.71;63.86
3598;BME280;1813;52.016;8.714;2023-07-22T09:08:07;-16261.94;;;-139.71;63.67
3598;BME280;1813;52.016;8.714;2023-07-22T09:10:41;-16261.94;;;-139.71;62.20
3598;BME280;1813;52.016;8.714;2023-07-22T09:13:17;-16261.94;;;-139.71;62.43
3598;BME280;1813;52.016;8.714;2023-07-22T09:15:53;-16261.94;;;-139.71;60.72
3598;BME280;1813;52.016;8.714;2023-07-22T09:18:28;-16261.94;;;-139.71;60.84
3598;BME280;1813;52.016;8.714;2023-07-22T09:21:02;-16261.94;;;-139.71;60.10
3598;BME280;1813;52.016;8.714;2023-07-22T09:23:39;-16261.94;;;-139.71;59.07
3598;BME280;1813;52.016;8.714;2023-07-22T09:26:14;-16261.94;;;-139.71;60.09
3598;BME280;1813;52.016;8.714;2023-07-22T09:28:49;-16261.94;;;-139.71;59.60
3598;BME280;1813;52.016;8.714;2023-07-22T09:31:24;-16261.94;;;-139.71;58.68
3598;BME280;1813;52.016;8.714;2023-07-22T09:34:09;-16261.94;;;-139.71;57.63
3598;BME280;1813;52.016;8.714;2023-07-22T09:36:50;-16261.94;;;-139.71;57.53
3598;BME280;1813;52.016;8.714;2023-07-22T09:39:28;-16261.94;;;-139.71;56.01
3598;BME280;1813;52.016;8.714;2023-07-22T09:42:03;-16261.94;;;-139.71;55.75
3598;BME280;1813;52.016;8.714;2023-07-22T09:44:43;-16261.94;;;-139.71;56.00
3598;BME280;1813;52.016;8.714;2023-07-22T09:47:17;-16261.94;;;-139.71;57.72
3598;BME280;1813;52.016;8.714;2023-07-22T09:49:51;-16261.94;;;-139.71;56.82
3598;BME280;1813;52.016;8.714;2023-07-22T09:52:25;-16261.94;;;-139.71;56.42
3598;BME280;1813;52.016;8.714;2023-07-22T09:55:05;-16261.94;;;-139.71;55.96
3598;BME280;1813;52.016;8.714;2023-07-22T09:57:43;-16261.94;;;-139.71;55.24
3598;BME280;1813;52.016;8.714;2023-07-22T10:00:18;-16261.94;;;-139.71;54.30
3598;BME280;1813;52.016;8.714;2023-07-22T10:02:59;-16261.94;;;-139.71;54.03
3598;BME280;1813;52.016;8.714;2023-07-22T10:05:35;-16261.94;;;-139.71;52.18
3598;BME280;1813;52.016;8.714;2023-07-22T10:08:10;-16261.94;;;-139.71;53.26
3598;BME280;1813;52.016;8.714;2023-07-22T10:10:52;-16261.94;;;-139.71;51.89
3598;BME280;1813;52.016;8.714;2023-07-22T10:13:27;-16261.94;;;-139.71;51.65
3598;BME280;1813;52.016;8.714;2023-07-22T10:16:01;-16261.94;;;-139.71;51.13
3598;BME280;1813;52.016;8.714;2023-07-22T10:18:36;-16261.94;;;-139.71;51.11
3598;BME280;1813;52.016;8.714;2023-07-22T10:21:12;-16261.94;;;-139.71;51.04
3598;BME280;1813;52.016;8.714;2023-07-22T10:23:47;-16261.94;;;-139.71;49.92
3598;BME280;1813;52.016;8.714;2023-07-22T10:26:24;-16261.94;;;-139.71;50.09
3598;BME280;1813;52.016;8.714;2023-07-22T10:28:58;-16261.94;;;-139.71;49.63
3598;BME280;1813;52.016;8.714;2023-07-22T10:31:33;-16261.94;;;-139.71;49.59
3598;BME280;1813;52.016;8.714;2023-07-22T10:34:06;-16261.94;;;-139.71;48.11
3598;BME280;1813;52.016;8.714;2023-07-22T10:36:41;-16261.94;;;-139.71;47.42
3598;BME280;1813;52.016;8.714;2023-07-22T10:39:24;-16261.94;;;-139.71;46.28
3598;BME280;1813;52.016;8.714;2023-07-22T10:42:05;-16261.94;;;-139.71;44.84
3598;BME280;1813;52.016;8.714;2023-07-22T10:44:39;-16261.94;;;-139.71;43.55
3598;BME280;1813;52.016;8.714;2023-07-22T10:47:31;-16261.94;;;-139.71;44.91
3598;BME280;1813;52.016;8.714;2023-07-22T10:50:06;-16261.94;;;-139.71;45.42
3598;BME280;1813;52.016;8.714;2023-07-22T10:52:42;-16261.94;;;-139.71;46.61
3598;BME280;1813;52.016;8.714;2023-07-22T10:55:20;-16261.94;;;-139.71;48.45
3598;BME280;1813;52.016;8.714;2023-07-22T10:58:04;-16261.94;;;-139.71;47.46
3598;BME280;1813;52.016;8.714;2023-07-22T11:00:39;-16261.94;;;-139.71;45.53
3598;BME280;1813;52.016;8.714;2023-07-22T11:03:13;-16261.94;;;-139.71;46.12
3598;BME280;1813;52.016;8.714;2023-07-22T11:05:50;-16261.94;;;-139.71;46.19
3598;BME280;1813;52.016;8.714;2023-07-22T11:08:36;-16261.94;;;-139.71;44.99
3598;BME280;1813;52.016;8.714;2023-07-22T11:11:11;-16261.94;;;-139.71;44.93
3598;BME280;1813;52.016;8.714;2023-07-22T11:13:50;-16261.94;;;-139.71;43.85
3598;BME280;1813;52.016;8.714;2023-07-22T11:16:28;-16261.94;;;-139.71;43.71
3598;BME280;1813;52.016;8.714;2023-07-22T11:19:02;-16261.94;;;-139.71;44.35
3598;BME280;1813;52.016;8.714;2023-07-22T11:21:36;-16261.94;;;-139.71;43.75
3598;BME280;1813;52.016;8.714;2023-07-22T11:24:10;-16261.94;;;-139.71;43.90
3598;BME280;1813;52.016;8.714;2023-07-22T11:26:44;-16261.94;;;-139.71;43.99
3598;BME280;1813;52.016;8.714;2023-07-22T11:29:23;-16261.94;;;-139.71;44.36
3598;BME280;1813;52.016;8.714;2023-07-22T11:31:57;-16261.94;;;-139.71;43.93
3598;BME280;1813;52.016;8.714;2023-07-22T11:34:31;-16261.94;;;-139.71;44.66
3598;BME280;1813;52.016;8.714;2023-07-22T11:37:05;-16261.94;;;-139.71;43.87
3598;BME280;1813;52.016;8.714;2023-07-22T11:39:39;-16261.94;;;-139.71;43.50
3598;BME280;1813;52.016;8.714;2023-07-22T11:42:15;-16261.94;;;-139.71;44.42
3598;BME280;1813;52.016;8.714;2023-07-22T11:44:51;-16261.94;;;-139.71;44.09
3598;BME280;1813;52.016;8.714;2023-07-22T11:47:29;-16261.94;;;-139.71;43.69
3598;BME280;1813;52.016;8.714;2023-07-22T11:50:04;-16261.94;;;-139.71;44.34
3598;BME280;1813;52.016;8.714;2023-07-22T11:52:38;-16261.94;;;-139.71;44.53
3598;BME280;1813;52.016;8.714;2023-07-22T11:55:12;-16261.94;;;-139.71;44.59
3598;BME280;1813;52.016;8.714;2023-07-22T11:57:52;-16261.94;;;-139.71;43.83
3598;BME280;1813;52.016;8.714;2023-07-22T12:00:29;-16261.94;;;-139.71;43.56
3598;BME280;1813;52.016;8.714;2023-07-22T12:03:05;-16261.94;;;-139.71;42.20
3598;BME280;1813;52.016;8.714;2023-07-22T12:05:39;-16261.94;;;-139.71;42.38
3598;BME280;1813;52.016;8.714;2023-07-22T12:08:14;-16261.94;;;-139.71;42.63
3598;BME280;1813;52.016;8.714;2023-07-22T12:10:56;-16261.94;;;-139.71;41.47
3598;BME280;1813;52.016;8.714;2023-07-22T12:13:35;-16261.94;;;-139.71;40.95
3598;BME280;1813;52.016;8.714;2023-07-22T12:16:13;-16261.94;;;-139.71;41.27
3598;BME280;1813;52.016;8.714;2023-07-22T12:18:47;-16261.94;;;-139.71;41.47
3598;BME280;1813;52.016;8.714;2023-07-22T12:21:21;-16261.94;;;-139.71;41.21
3598;BME280;1813;52.016;8.714;2023-07-22T12:23:56;-16261.94;;;-139.71;40.46
3598;BME280;1813;52.016;8.714;2023-07-22T12:26:30;-16261.94;;;-139.71;40.57
3598;BME280;1813;52.016;8.714;2023-07-22T12:29:04;-16261.94;;;-139.71;40.44
3598;BME280;1813;52.016;8.714;2023-07-22T12:31:42;-16261.94;;;-139.71;39.61
3598;BME280;1813;52.016;8.714;2023-07-22T12:34:16;-16261.94;;;-139.71;40.12
3598;BME280;1813;52.016;8.714;2023-07-22T12:36:49;-16261.94;;;-139.71;39.27
3598;BME280;1813;52.016;8.714;2023-07-22T12:39:23;-16261.94;;;-139.71;39.83
3598;BME280;1813;52.016;8.714;2023-07-22T12:41:59;-16261.94;;;-139.71;39.35
3598;BME280;1813;52.016;8.714;2023-07-22T12:44:33;-16261.94;;;-139.71;39.94
3598;BME280;1813;52.016;8.714;2023-07-22T12:47:10;-16261.94;;;-139.71;40.02
3598;BME280;1813;52.016;8.714;2023-07-22T12:49:44;-16261.94;;;-139.71;39.13
3598;BME280;1813;52.016;8.714;2023-07-22T12:52:18;-16261.94;;;-139.71;38.76
3598;BME280;1813;52.016;8.714;2023-07-22T12:54:52;-16261.94;;;-139.71;38.79
3598;BME280;1813;52.016;8.714;2023-07-22T12:57:26;-16261.94;;;-139.71;38.80
3598;BME280;1813;52.016;8.714;2023-07-22T13:00:00;-16261.94;;;-139.71;38.55
3598;BME280;1813;52.016;8.714;2023-07-22T13:02:39;-16261.94;;;-139.71;39.43
3598;BME280;1813;52.016;8.714;2023-07-22T13:05:13;-16261.94;;;-139.71;39.38
3598;BME280;1813;52.016;8.714;2023-07-22T13:07:48;-16261.94;;;-139.71;39.11
3598;BME280;1813;52.016;8.714;2023-07-22T13:10:23;-16261.94;;;-139.71;39.69
3598;BME280;1813;52.016;8.714;2023-07-22T13:12:59;-16261.94;;;-139.71;39.05
3598;BME280;1813;52.016;8.714;2023-07-22T13:15:36;-16261.94;;;-139.71;38.10
3598;BME280;1813;52.016;8.714;2023-07-22T13:18:17;-16261.94;;;-139.71;38.05
3598;BME280;1813;52.016;8.714;2023-07-22T13:20:54;-16261.94;;;-139.71;38.00
3598;BME280;1813;52.016;8.714;2023-07-22T13:23:30;-16261.94;;;-139.71;38.24
3598;BME280;1813;52.016;8.714;2023-07-22T13:26:06;-16261.94;;;-139.71;38.81
3598;BME280;1813;52.016;8.714;2023-07-22T13:28:40;-16261.94;;;-139.71;38.86
3598;BME280;1813;52.016;8.714;2023-07-22T13:31:20;-16261.94;;;-139.71;38.59